Madison, Connecticut
Current Conditions -  °F | °C
As of 7:55 AM on Wednesday 22 Oct 2014 (Local Time) from KSNC Reporting Station
Overcast Overcast  
Wind Chill: 54°   Ceiling: 800
Heat Index: 54°   Visibility: 10mi
Dew Point: 50°   Wind: 8mph
Humidity: 88%   Direction: 30°NNE
Pressure: 29.95"   Gusts: NA
Location:  41.28°N, 72.6°W
Report Text: KSNC 221155Z AUTO 03007KT 020V360 10SM OVC008 12/10 A2995 RMK AO2
Loading
Personal Weather Stations






























Interactive Weather Map
Tropical Storm Tracking
New forecast layout! Learn more

10-Day Weather Forecast

Advertisements
Track Severe Weather on mobile